Terminal Aerodrome Forecast
Issued by NWS

Home | Current Version | Previous Version | Text Only | Print | Product List | Glossary On
Versions: 1 2 3 4 5 6 7 8 9 10 11 12 13 14
000
FTUS45 KABQ 072346
TAFTCC
TAF
KTCC 072346Z 0800/0824 11008KT 3SM BR BKN045
     FM080600 VRB05KT 3/4SM BR OVC015
     FM081300 21011KT 5SM BR SCT015 BKN030
     FM081900 21017G24KT P6SM SCT060 BKN100
     FM082200 22015G25KT P6SM VCTS SCT070CB BKN120=

USA.gov is the U.S. government's official web portal to all federal, state and local government web resources and services.